Time;durP1;ratioP1;P1;durP2;ratioP2;P2;SDS_P1;SDS_P2;PMS_P1;PMS_P2;Temp;Humidity;BMP_temperature;BMP_pressure;BME280_temperature;BME280_humidity;BME280_pressure;Samples;Min_cycle;Max_cycle;Signal;HPM_P1;HPM_P2
2022/06/01 00:00:23;;;;;;;2.33;1.67;;;;;;;;;;5053055;28;20176;-88
2022/06/01 00:02:48;;;;;;;1.85;1.75;;;;;;;;;;5051947;28;20037;-88
2022/06/01 00:05:14;;;;;;;1.73;1.63;;;;;;;;;;5052562;28;20071;-88
2022/06/01 00:07:39;;;;;;;1.85;1.73;;;;;;;;;;5053364;28;20116;-88
2022/06/01 00:10:05;;;;;;;2.30;1.70;;;;;;;;;;5052150;28;20036;-87
2022/06/01 00:12:34;;;;;;;1.92;1.83;;;;;;;;;;5053490;28;20168;-86
2022/06/01 00:15:00;;;;;;;1.75;1.63;;;;;;;;;;5051884;28;20036;-87
2022/06/01 00:17:26;;;;;;;1.73;1.60;;;;;;;;;;5053418;28;20052;-87
2022/06/01 00:19:51;;;;;;;1.80;1.70;;;;;;;;;;5051808;28;20075;-88
2022/06/01 00:22:17;;;;;;;2.35;1.77;;;;;;;;;;5051660;28;20423;-88
2022/06/01 00:24:44;;;;;;;2.10;1.83;;;;;;;;;;5034971;28;20373;-88
2022/06/01 00:27:11;;;;;;;2.00;1.80;;;;;;;;;;5051639;28;20025;-88
2022/06/01 00:29:37;;;;;;;2.28;2.00;;;;;;;;;;5051510;28;20500;-88
2022/06/01 00:32:03;;;;;;;2.67;1.70;;;;;;;;;;5051626;28;20444;-88
2022/06/01 00:34:28;;;;;;;1.70;1.60;;;;;;;;;;5050837;28;20021;-88
2022/06/01 00:36:54;;;;;;;1.77;1.67;;;;;;;;;;5051656;28;20055;-88
2022/06/01 00:39:19;;;;;;;2.63;1.70;;;;;;;;;;5051398;28;20054;-89
2022/06/01 00:41:45;;;;;;;2.17;1.73;;;;;;;;;;5034810;28;20112;-89
2022/06/01 00:44:10;;;;;;;2.15;1.88;;;;;;;;;;5054058;28;20444;-89
2022/06/01 00:46:36;;;;;;;2.10;1.90;;;;;;;;;;5051343;28;20025;-88
2022/06/01 00:49:09;;;;;;;2.78;1.98;;;;;;;;;;5051506;28;20032;-88
2022/06/01 00:51:35;;;;;;;3.58;1.90;;;;;;;;;;5051853;28;20056;-87
2022/06/01 00:54:00;;;;;;;2.47;1.77;;;;;;;;;;5034763;28;20059;-88
2022/06/01 00:56:31;;;;;;;2.97;1.90;;;;;;;;;;5051629;28;20138;-87
2022/06/01 00:58:57;;;;;;;1.67;1.58;;;;;;;;;;5051518;28;20123;-88
2022/06/01 01:01:23;;;;;;;1.73;1.63;;;;;;;;;;5051269;28;20060;-87
2022/06/01 01:03:50;;;;;;;2.40;2.20;;;;;;;;;;5034451;28;20210;-89
2022/06/01 01:06:21;;;;;;;1.80;1.70;;;;;;;;;;5051368;28;20443;-89
2022/06/01 01:08:47;;;;;;;2.00;1.80;;;;;;;;;;5051751;28;20473;-88
2022/06/01 01:11:13;;;;;;;1.90;1.63;;;;;;;;;;5051020;28;20119;-88
2022/06/01 01:13:40;;;;;;;2.03;1.88;;;;;;;;;;5051416;28;20028;-88
2022/06/01 01:16:06;;;;;;;2.42;2.03;;;;;;;;;;5051280;28;20059;-89
2022/06/01 01:18:41;;;;;;;2.10;1.90;;;;;;;;;;5051810;28;20017;-87
2022/06/01 01:21:30;;;;;;;2.63;1.90;;;;;;;;;;5051698;28;20044;-87
2022/06/01 01:24:44;;;;;;;2.00;1.77;;;;;;;;;;5051144;28;20526;-87
2022/06/01 01:27:09;;;;;;;2.00;1.67;;;;;;;;;;5015520;28;20045;-86
2022/06/01 01:29:42;;;;;;;4.50;2.20;;;;;;;;;;5051029;28;20513;-87
2022/06/01 01:32:10;;;;;;;3.37;2.07;;;;;;;;;;5051014;28;20051;-87
2022/06/01 01:34:37;;;;;;;2.85;1.83;;;;;;;;;;5051170;28;20396;-87
2022/06/01 01:37:05;;;;;;;3.28;2.13;;;;;;;;;;5052649;28;20049;-88
2022/06/01 01:39:32;;;;;;;3.03;2.22;;;;;;;;;;5051020;28;20396;-87
2022/06/01 01:41:58;;;;;;;2.22;2.00;;;;;;;;;;5050877;28;20028;-87
2022/06/01 01:44:46;;;;;;;2.63;1.95;;;;;;;;;;5051008;28;20039;-88
2022/06/01 01:47:12;;;;;;;6.82;2.17;;;;;;;;;;5054212;28;20032;-87
2022/06/01 01:49:39;;;;;;;3.50;2.10;;;;;;;;;;5054652;28;20058;-88
2022/06/01 01:52:13;;;;;;;2.20;2.00;;;;;;;;;;5055203;28;20470;-87
2022/06/01 01:54:50;;;;;;;2.65;2.15;;;;;;;;;;5054511;28;20032;-87
2022/06/01 01:57:30;;;;;;;2.30;1.92;;;;;;;;;;5054444;28;20029;-88
2022/06/01 02:00:08;;;;;;;2.03;1.83;;;;;;;;;;5056006;28;20389;-89
2022/06/01 02:02:55;;;;;;;1.90;1.70;;;;;;;;;;5056101;28;20060;-89
2022/06/01 02:06:05;;;;;;;3.08;2.17;;;;;;;;;;5054324;28;20045;-89
2022/06/01 02:08:46;;;;;;;2.42;2.00;;;;;;;;;;5055824;28;20484;-89
2022/06/01 02:14:40;;;;;;;4.28;1.85;;;;;;;;;;5055672;28;20060;-89
2022/06/01 02:17:09;;;;;;;3.05;1.80;;;;;;;;;;5054417;28;20169;-87
2022/06/01 02:19:39;;;;;;;3.15;2.28;;;;;;;;;;5054251;28;20025;-87
2022/06/01 02:22:05;;;;;;;2.10;1.90;;;;;;;;;;5055414;28;20079;-88
2022/06/01 02:24:31;;;;;;;2.00;1.90;;;;;;;;;;5054426;28;20064;-88
2022/06/01 02:26:57;;;;;;;1.92;1.75;;;;;;;;;;5055313;28;20124;-88
2022/06/01 02:29:30;;;;;;;1.90;1.80;;;;;;;;;;5055624;28;20085;-88
2022/06/01 02:31:57;;;;;;;2.07;1.60;;;;;;;;;;5054105;28;20048;-88
2022/06/01 02:34:23;;;;;;;1.90;1.80;;;;;;;;;;5054009;28;20378;-87
2022/06/01 02:36:50;;;;;;;3.97;1.73;;;;;;;;;;5037179;28;20101;-89
2022/06/01 02:39:16;;;;;;;2.63;2.28;;;;;;;;;;5037583;28;20436;-88
2022/06/01 02:44:25;;;;;;;2.10;1.90;;;;;;;;;;5054509;28;20044;-89
2022/06/01 02:46:51;;;;;;;2.03;1.83;;;;;;;;;;5055027;28;20025;-89
2022/06/01 02:49:17;;;;;;;1.80;1.50;;;;;;;;;;5055242;28;20039;-89
2022/06/01 02:51:44;;;;;;;1.80;1.70;;;;;;;;;;5036838;28;20067;-89
2022/06/01 02:54:10;;;;;;;2.17;1.80;;;;;;;;;;5036772;28;20020;-89
2022/06/01 02:56:35;;;;;;;1.73;1.50;;;;;;;;;;5054844;28;20032;-88
2022/06/01 02:59:00;;;;;;;1.98;1.65;;;;;;;;;;5052927;28;20527;-88
2022/06/01 03:01:26;;;;;;;1.60;1.50;;;;;;;;;;5053590;28;20029;-88
2022/06/01 03:03:51;;;;;;;2.53;1.70;;;;;;;;;;5054830;28;20045;-88
2022/06/01 03:06:17;;;;;;;2.00;1.60;;;;;;;;;;5037019;28;20033;-88
2022/06/01 03:08:42;;;;;;;1.92;1.77;;;;;;;;;;5054597;28;20025;-88
2022/06/01 03:11:08;;;;;;;1.90;1.70;;;;;;;;;;5054406;28;20085;-89
2022/06/01 03:13:33;;;;;;;2.08;1.88;;;;;;;;;;5054419;28;20338;-88
2022/06/01 03:15:59;;;;;;;1.42;1.33;;;;;;;;;;5052790;28;20037;-88
2022/06/01 03:18:25;;;;;;;1.70;1.60;;;;;;;;;;5053178;28;20028;-89
2022/06/01 03:20:51;;;;;;;3.65;2.20;;;;;;;;;;5055269;28;20489;-88
2022/06/01 03:23:19;;;;;;;1.90;1.70;;;;;;;;;;5039787;28;20091;-89
2022/06/01 03:25:44;;;;;;;2.15;1.90;;;;;;;;;;5054191;28;20024;-88
2022/06/01 03:28:09;;;;;;;2.00;1.58;;;;;;;;;;5054033;28;20353;-89
2022/06/01 03:30:35;;;;;;;1.83;1.52;;;;;;;;;;5036391;28;20037;-89
2022/06/01 03:33:00;;;;;;;5.57;1.67;;;;;;;;;;5053068;28;20097;-88
2022/06/01 03:35:31;;;;;;;2.58;2.00;;;;;;;;;;5036306;28;20033;-88
2022/06/01 03:37:59;;;;;;;3.20;1.58;;;;;;;;;;5036532;28;20021;-88
2022/06/01 03:40:27;;;;;;;1.75;1.60;;;;;;;;;;5052974;28;20090;-89
2022/06/01 03:42:52;;;;;;;1.92;1.73;;;;;;;;;;5052560;28;20028;-89
2022/06/01 03:48:03;;;;;;;1.77;1.40;;;;;;;;;;5052727;28;20039;-88
2022/06/01 03:50:29;;;;;;;2.95;2.10;;;;;;;;;;5052736;28;20037;-88
2022/06/01 03:52:55;;;;;;;1.50;1.40;;;;;;;;;;5055936;28;20086;-89
2022/06/01 03:55:21;;;;;;;1.98;1.30;;;;;;;;;;5052673;28;20060;-89
2022/06/01 03:57:47;;;;;;;1.52;1.35;;;;;;;;;;5054111;28;20029;-89
2022/06/01 04:00:16;;;;;;;1.60;1.50;;;;;;;;;;5052886;28;20047;-89
2022/06/01 04:02:41;;;;;;;1.58;1.30;;;;;;;;;;5035881;28;20021;-89
2022/06/01 04:05:08;;;;;;;1.45;1.35;;;;;;;;;;5035374;28;20055;-89
2022/06/01 04:07:33;;;;;;;2.75;1.35;;;;;;;;;;5052200;28;20040;-89
2022/06/01 04:09:59;;;;;;;4.47;1.40;;;;;;;;;;5034394;28;20025;-87
2022/06/01 04:12:24;;;;;;;2.03;1.45;;;;;;;;;;5053299;28;20165;-89
2022/06/01 04:14:50;;;;;;;1.52;1.42;;;;;;;;;;5052186;28;20029;-88
2022/06/01 04:17:15;;;;;;;4.57;1.58;;;;;;;;;;5053337;28;20048;-88
2022/06/01 04:19:40;;;;;;;4.80;1.85;;;;;;;;;;5035609;28;20033;-86
2022/06/01 04:22:06;;;;;;;5.38;1.75;;;;;;;;;;5053140;28;20425;-86
2022/06/01 04:24:33;;;;;;;3.20;1.58;;;;;;;;;;5051996;28;20025;-87
2022/06/01 04:26:58;;;;;;;3.13;1.60;;;;;;;;;;5052137;28;20041;-86
2022/06/01 04:29:26;;;;;;;2.30;1.50;;;;;;;;;;5018889;28;20025;-86
2022/06/01 04:32:14;;;;;;;3.75;2.03;;;;;;;;;;5035759;28;20040;-86
2022/06/01 04:34:40;;;;;;;3.40;2.15;;;;;;;;;;5052643;28;20021;-84
2022/06/01 04:37:06;;;;;;;4.75;2.42;;;;;;;;;;5054287;28;20044;-81
2022/06/01 04:39:31;;;;;;;5.15;2.28;;;;;;;;;;5056614;28;20102;-86
2022/06/01 04:41:57;;;;;;;7.25;2.22;;;;;;;;;;5036875;28;20021;-86
2022/06/01 04:44:24;;;;;;;5.90;2.50;;;;;;;;;;5054928;28;20033;-85
2022/06/01 04:46:49;;;;;;;6.25;2.50;;;;;;;;;;5053462;28;20417;-88
2022/06/01 04:49:15;;;;;;;5.28;2.13;;;;;;;;;;5052873;28;20032;-89
2022/06/01 04:51:40;;;;;;;7.05;2.35;;;;;;;;;;5053964;28;20146;-90
2022/06/01 04:54:07;;;;;;;7.15;2.38;;;;;;;;;;5035891;28;20079;-88
2022/06/01 04:56:32;;;;;;;4.38;2.20;;;;;;;;;;5036314;28;20083;-86
2022/06/01 04:58:58;;;;;;;6.72;2.80;;;;;;;;;;5052596;28;20427;-88
2022/06/01 05:01:23;;;;;;;6.97;3.10;;;;;;;;;;5036232;28;20041;-91
2022/06/01 05:03:49;;;;;;;19.80;3.90;;;;;;;;;;5053627;28;20048;-85
2022/06/01 05:06:14;;;;;;;11.82;3.60;;;;;;;;;;5052173;28;20397;-87
2022/06/01 05:08:40;;;;;;;17.52;3.70;;;;;;;;;;5054012;28;20059;-88
2022/06/01 05:11:05;;;;;;;11.80;4.28;;;;;;;;;;5035448;28;20029;-87
2022/06/01 05:13:31;;;;;;;13.88;3.85;;;;;;;;;;5053495;28;20033;-87
2022/06/01 05:15:59;;;;;;;9.35;3.13;;;;;;;;;;5056217;28;20032;-87
2022/06/01 05:18:25;;;;;;;10.00;2.92;;;;;;;;;;5039418;28;20032;-87
2022/06/01 05:20:53;;;;;;;8.32;3.00;;;;;;;;;;5057477;28;20029;-89
2022/06/01 05:23:19;;;;;;;11.93;3.10;;;;;;;;;;5044049;28;20370;-87
2022/06/01 05:25:46;;;;;;;6.22;2.65;;;;;;;;;;5061183;28;20094;-88
2022/06/01 05:28:15;;;;;;;12.52;2.45;;;;;;;;;;5059654;28;20086;-88
2022/06/01 05:30:41;;;;;;;10.05;3.05;;;;;;;;;;5059007;28;20033;-90
2022/06/01 05:33:07;;;;;;;6.13;2.50;;;;;;;;;;5059396;28;20017;-89
2022/06/01 05:35:32;;;;;;;9.75;2.58;;;;;;;;;;5042805;28;20507;-89
2022/06/01 05:37:58;;;;;;;10.00;3.03;;;;;;;;;;5043336;28;20496;-89
2022/06/01 05:40:24;;;;;;;7.55;2.15;;;;;;;;;;5059202;28;20082;-88
2022/06/01 05:42:49;;;;;;;6.25;2.53;;;;;;;;;;5059098;28;20417;-89
2022/06/01 05:45:15;;;;;;;5.82;2.10;;;;;;;;;;5026415;28;20037;-89
2022/06/01 05:47:40;;;;;;;7.10;2.40;;;;;;;;;;5042780;28;20060;-88
2022/06/01 05:50:06;;;;;;;5.97;2.20;;;;;;;;;;5060294;28;20087;-89
2022/06/01 05:52:32;;;;;;;6.10;2.15;;;;;;;;;;5059768;28;20028;-89
2022/06/01 05:54:57;;;;;;;6.10;1.73;;;;;;;;;;5043060;28;20033;-89
2022/06/01 05:57:22;;;;;;;6.38;1.85;;;;;;;;;;5063687;28;20120;-89
2022/06/01 05:59:48;;;;;;;7.43;2.10;;;;;;;;;;5060393;28;20029;-88
2022/06/01 06:02:13;;;;;;;2.35;1.58;;;;;;;;;;5059498;28;20029;-88
2022/06/01 06:04:38;;;;;;;3.42;1.75;;;;;;;;;;5042950;28;20049;-88
2022/06/01 06:07:04;;;;;;;5.55;1.67;;;;;;;;;;5026245;28;20120;-88
2022/06/01 06:09:29;;;;;;;5.93;1.90;;;;;;;;;;5025662;28;20036;-88
2022/06/01 06:11:55;;;;;;;4.85;1.70;;;;;;;;;;5041741;28;20037;-88
2022/06/01 06:14:21;;;;;;;4.15;1.50;;;;;;;;;;5058939;28;20079;-89
2022/06/01 06:16:47;;;;;;;3.78;1.60;;;;;;;;;;5059029;28;20036;-89
2022/06/01 06:19:13;;;;;;;3.97;1.52;;;;;;;;;;5058630;28;20024;-89
2022/06/01 06:21:39;;;;;;;5.68;1.63;;;;;;;;;;5059235;28;20036;-90
2022/06/01 06:24:08;;;;;;;2.10;1.42;;;;;;;;;;5057990;28;20394;-89
2022/06/01 06:26:34;;;;;;;2.30;1.60;;;;;;;;;;5056320;28;20393;-89
2022/06/01 06:29:01;;;;;;;3.33;1.40;;;;;;;;;;5073230;28;20025;-88
2022/06/01 06:31:27;;;;;;;2.35;1.38;;;;;;;;;;5062116;28;20041;-88
2022/06/01 06:33:52;;;;;;;3.30;1.48;;;;;;;;;;5038611;28;20586;-89
2022/06/01 06:36:17;;;;;;;1.88;1.38;;;;;;;;;;5056673;28;20100;-90
2022/06/01 06:38:43;;;;;;;3.97;1.25;;;;;;;;;;5057259;28;20496;-89
2022/06/01 06:41:10;;;;;;;1.98;1.10;;;;;;;;;;5038720;28;20036;-90
2022/06/01 06:43:36;;;;;;;1.85;1.40;;;;;;;;;;5055674;28;20514;-91
2022/06/01 06:46:12;;;;;;;1.70;1.17;;;;;;;;;;5038882;28;20115;-90
2022/06/01 06:48:38;;;;;;;1.33;1.10;;;;;;;;;;5038839;28;20025;-89
2022/06/01 06:51:04;;;;;;;2.00;0.95;;;;;;;;;;5056351;28;20040;-90
2022/06/01 06:53:29;;;;;;;1.55;0.90;;;;;;;;;;5038735;28;20021;-90
2022/06/01 06:55:55;;;;;;;1.15;0.93;;;;;;;;;;5055280;28;20047;-89
2022/06/01 06:58:21;;;;;;;2.80;1.00;;;;;;;;;;5055262;28;20037;-90
2022/06/01 07:00:47;;;;;;;0.93;0.90;;;;;;;;;;5055519;28;20454;-89
2022/06/01 07:03:12;;;;;;;1.35;0.85;;;;;;;;;;5056180;28;20028;-89
2022/06/01 07:08:22;;;;;;;1.50;0.85;;;;;;;;;;5055520;28;20031;-89
2022/06/01 07:10:48;;;;;;;1.20;0.90;;;;;;;;;;5038336;28;20033;-87
2022/06/01 07:13:13;;;;;;;0.90;0.90;;;;;;;;;;5055792;28;20045;-87
2022/06/01 07:15:39;;;;;;;2.00;1.00;;;;;;;;;;5055977;28;20060;-87
2022/06/01 07:18:05;;;;;;;1.60;1.00;;;;;;;;;;5041640;28;20059;-88
2022/06/01 07:20:31;;;;;;;1.35;1.00;;;;;;;;;;5038963;28;20033;-88
2022/06/01 07:22:57;;;;;;;1.85;1.00;;;;;;;;;;5055939;28;20021;-88
2022/06/01 07:25:23;;;;;;;1.20;0.80;;;;;;;;;;5038515;28;20606;-89
2022/06/01 07:27:49;;;;;;;2.95;0.90;;;;;;;;;;5056797;28;20024;-89
2022/06/01 07:30:15;;;;;;;1.88;0.88;;;;;;;;;;5060240;28;20469;-91
2022/06/01 07:32:46;;;;;;;3.75;0.75;;;;;;;;;;5048259;28;20049;-89
2022/06/01 07:35:11;;;;;;;1.45;0.90;;;;;;;;;;5038246;28;20055;-89
2022/06/01 07:43:08;;;;;;;3.53;1.10;;;;;;;;;;5056113;28;20057;-90
2022/06/01 07:45:39;;;;;;;1.42;1.00;;;;;;;;;;5057479;28;20440;-89
2022/06/01 07:48:06;;;;;;;1.92;1.60;;;;;;;;;;5059218;28;20488;-86
2022/06/01 07:50:32;;;;;;;4.68;1.05;;;;;;;;;;5060936;28;20369;-87
2022/06/01 07:52:58;;;;;;;2.85;1.05;;;;;;;;;;5054078;28;20095;-86
2022/06/01 07:55:24;;;;;;;1.67;0.90;;;;;;;;;;5054082;28;20033;-88
2022/06/01 07:57:49;;;;;;;7.00;0.95;;;;;;;;;;5020919;28;20040;-89
2022/06/01 08:00:15;;;;;;;4.90;1.23;;;;;;;;;;5051675;28;20087;-89
2022/06/01 08:02:41;;;;;;;2.92;1.13;;;;;;;;;;5053213;28;20028;-89
2022/06/01 08:05:08;;;;;;;1.92;0.80;;;;;;;;;;5054196;28;20052;-89
2022/06/01 08:07:36;;;;;;;1.58;0.80;;;;;;;;;;5053277;28;20064;-88
2022/06/01 08:10:03;;;;;;;3.00;1.10;;;;;;;;;;5037276;28;20086;-87
2022/06/01 08:15:13;;;;;;;1.20;0.95;;;;;;;;;;5054803;28;20032;-88
2022/06/01 08:17:40;;;;;;;0.80;0.80;;;;;;;;;;5053708;28;20033;-89
2022/06/01 08:20:06;;;;;;;2.33;0.90;;;;;;;;;;5037160;28;20079;-90
2022/06/01 08:22:31;;;;;;;2.65;1.10;;;;;;;;;;5036790;28;20044;-89
2022/06/01 08:24:56;;;;;;;0.80;0.80;;;;;;;;;;5056123;28;20405;-90
2022/06/01 08:27:22;;;;;;;2.08;0.90;;;;;;;;;;5037174;28;20036;-91
2022/06/01 08:29:47;;;;;;;0.88;0.75;;;;;;;;;;5053920;28;20029;-90
2022/06/01 08:32:13;;;;;;;3.45;0.82;;;;;;;;;;5055568;28;20119;-90
2022/06/01 08:34:39;;;;;;;3.72;1.00;;;;;;;;;;5071203;28;20029;-90
2022/06/01 08:37:05;;;;;;;1.48;0.70;;;;;;;;;;5045335;28;20060;-89
2022/06/01 08:39:31;;;;;;;1.73;0.70;;;;;;;;;;5037061;28;20469;-90
2022/06/01 08:41:58;;;;;;;0.63;0.63;;;;;;;;;;5021586;28;20041;-89
2022/06/01 08:44:38;;;;;;;1.60;1.00;;;;;;;;;;5053952;28;20108;-90
2022/06/01 08:47:07;;;;;;;2.38;0.88;;;;;;;;;;5053642;28;20021;-89
2022/06/01 08:49:34;;;;;;;1.60;0.90;;;;;;;;;;5057228;28;20023;-90
2022/06/01 08:52:00;;;;;;;1.65;0.80;;;;;;;;;;5058499;28;20024;-90
2022/06/01 08:54:26;;;;;;;0.70;0.70;;;;;;;;;;5059580;28;20102;-90
2022/06/01 08:56:55;;;;;;;3.58;1.10;;;;;;;;;;5058724;28;20405;-89
2022/06/01 08:59:26;;;;;;;3.15;1.00;;;;;;;;;;5044605;28;20078;-90
2022/06/01 09:02:11;;;;;;;3.53;0.80;;;;;;;;;;5063611;28;20112;-90
2022/06/01 09:04:51;;;;;;;3.78;0.80;;;;;;;;;;5064463;28;20041;-90
2022/06/01 09:07:27;;;;;;;1.50;1.10;;;;;;;;;;5067162;28;20059;-91
2022/06/01 09:10:01;;;;;;;1.38;1.00;;;;;;;;;;5063554;28;20047;-91
2022/06/01 09:12:27;;;;;;;2.38;0.90;;;;;;;;;;5063312;28;20380;-89
2022/06/01 09:14:55;;;;;;;2.40;0.90;;;;;;;;;;5066164;28;20017;-89
2022/06/01 09:17:21;;;;;;;0.85;0.77;;;;;;;;;;5061983;28;20025;-89
2022/06/01 09:22:42;;;;;;;1.35;0.93;;;;;;;;;;5050029;28;20048;-89
2022/06/01 09:25:16;;;;;;;1.35;0.80;;;;;;;;;;5060167;28;20106;-90
2022/06/01 09:27:47;;;;;;;2.75;1.00;;;;;;;;;;5060814;28;20423;-88
2022/06/01 09:30:41;;;;;;;1.02;0.75;;;;;;;;;;5044995;28;20021;-90
2022/06/01 09:33:14;;;;;;;1.65;0.73;;;;;;;;;;5045884;28;20028;-90
2022/06/01 09:35:53;;;;;;;;;;;;;;;;;;5064720;28;20025;-91
2022/06/01 09:38:22;;;;;;;0.57;0.57;;;;;;;;;;5057354;28;20008;-89
2022/06/01 09:41:02;;;;;;;1.33;0.82;;;;;;;;;;5056131;28;20037;-89
2022/06/01 09:43:27;;;;;;;1.15;0.77;;;;;;;;;;5055128;28;20017;-89
2022/06/01 09:45:54;;;;;;;0.70;0.60;;;;;;;;;;5055472;28;20033;-90
2022/06/01 09:48:27;;;;;;;3.75;0.95;;;;;;;;;;5037128;28;20037;-89
2022/06/01 09:51:00;;;;;;;1.38;0.60;;;;;;;;;;5053008;28;20075;-90
2022/06/01 09:53:32;;;;;;;0.77;0.75;;;;;;;;;;5037585;28;20036;-90
2022/06/01 09:56:01;;;;;;;3.83;1.15;;;;;;;;;;5036196;28;20439;-88
2022/06/01 10:06:56;;;;;;;1.83;0.70;;;;;;;;;;5067480;28;20044;-89
2022/06/01 10:09:25;;;;;;;1.52;0.90;;;;;;;;;;5075222;28;20025;-91
2022/06/01 10:11:52;;;;;;;0.80;0.80;;;;;;;;;;5070556;28;20028;-89
2022/06/01 10:14:23;;;;;;;0.93;0.70;;;;;;;;;;5064127;28;20074;-88
2022/06/01 10:17:18;;;;;;;2.00;0.70;;;;;;;;;;5062127;28;20048;-89
2022/06/01 10:19:51;;;;;;;1.05;0.88;;;;;;;;;;5057204;28;20492;-88
2022/06/01 10:22:36;;;;;;;0.80;0.80;;;;;;;;;;5057372;28;20036;-89
2022/06/01 10:25:02;;;;;;;5.88;0.98;;;;;;;;;;5056083;28;20477;-88
2022/06/01 10:27:31;;;;;;;1.70;0.90;;;;;;;;;;5056982;28;20029;-86
2022/06/01 10:30:26;;;;;;;7.22;0.98;;;;;;;;;;5057944;28;20029;-86
2022/06/01 10:32:59;;;;;;;1.58;0.88;;;;;;;;;;5056708;28;20044;-87
2022/06/01 10:35:43;;;;;;;;;;;;;;;;;;5057237;28;20058;-87
2022/06/01 10:38:46;;;;;;;3.10;0.88;;;;;;;;;;5057370;28;20202;-86
2022/06/01 10:41:20;;;;;;;0.80;0.80;;;;;;;;;;5047388;28;20075;-84
2022/06/01 10:44:05;;;;;;;2.90;1.58;;;;;;;;;;5056695;28;20511;-88
2022/06/01 10:46:35;;;;;;;6.50;1.42;;;;;;;;;;5054871;28;20036;-83
2022/06/01 10:49:29;;;;;;;1.30;0.77;;;;;;;;;;5055226;28;20472;-82
2022/06/01 10:52:13;;;;;;;0.95;0.80;;;;;;;;;;5054733;28;20104;-82
2022/06/01 10:54:57;;;;;;;3.40;1.20;;;;;;;;;;5055990;28;20527;-83
2022/06/01 10:57:23;;;;;;;0.65;0.65;;;;;;;;;;5055719;28;20099;-83
2022/06/01 10:59:49;;;;;;;3.70;1.20;;;;;;;;;;5038513;28;20108;-84
2022/06/01 11:02:36;;;;;;;12.43;1.70;;;;;;;;;;5039262;28;20473;-82
2022/06/01 11:05:20;;;;;;;12.45;1.20;;;;;;;;;;5038577;28;20408;-81
2022/06/01 11:08:05;;;;;;;1.58;1.10;;;;;;;;;;5057038;28;20068;-81
2022/06/01 11:10:38;;;;;;;1.52;1.00;;;;;;;;;;5059030;28;20116;-86
2022/06/01 11:13:27;;;;;;;8.48;1.58;;;;;;;;;;5056510;28;20085;-85
2022/06/01 11:16:09;;;;;;;21.38;1.50;;;;;;;;;;5056460;28;20035;-84
2022/06/01 11:18:50;;;;;;;3.58;1.10;;;;;;;;;;5055780;28;20025;-84
2022/06/01 11:21:25;;;;;;;4.15;1.00;;;;;;;;;;5056057;28;20027;-82
2022/06/01 11:24:05;;;;;;;3.17;1.10;;;;;;;;;;5046118;28;20036;-83
2022/06/01 11:27:09;;;;;;;1.60;0.88;;;;;;;;;;5059667;28;20021;-83
2022/06/01 11:30:08;;;;;;;0.95;0.73;;;;;;;;;;5058738;28;20025;-85
2022/06/01 11:32:47;;;;;;;0.98;0.70;;;;;;;;;;5056349;28;20068;-85
2022/06/01 11:35:36;;;;;;;3.83;1.05;;;;;;;;;;5055441;28;20021;-85
2022/06/01 11:38:10;;;;;;;1.75;0.98;;;;;;;;;;5028316;28;20033;-84
2022/06/01 11:40:56;;;;;;;2.83;0.70;;;;;;;;;;5054173;28;20472;-89
2022/06/01 11:43:27;;;;;;;2.70;0.80;;;;;;;;;;5059121;28;20048;-87
2022/06/01 11:45:56;;;;;;;4.05;1.13;;;;;;;;;;5055993;28;20029;-86
2022/06/01 11:48:37;;;;;;;3.33;0.80;;;;;;;;;;5054134;28;20021;-87
2022/06/01 11:51:20;;;;;;;4.05;0.60;;;;;;;;;;5036635;28;20036;-88
2022/06/01 11:54:05;;;;;;;3.53;0.80;;;;;;;;;;5054382;28;20529;-93
2022/06/01 11:57:00;;;;;;;4.22;1.10;;;;;;;;;;5050175;28;20060;-94
2022/06/01 11:59:25;;;;;;;3.50;1.15;;;;;;;;;;5056930;28;20024;-87
2022/06/01 12:02:40;;;;;;;3.80;0.63;;;;;;;;;;5056934;28;20036;-88
2022/06/01 12:05:11;;;;;;;2.33;0.85;;;;;;;;;;5055256;28;20073;-84
2022/06/01 12:07:40;;;;;;;1.92;0.70;;;;;;;;;;5051013;28;20033;-85
2022/06/01 12:10:27;;;;;;;1.10;0.70;;;;;;;;;;5053399;28;20040;-83
2022/06/01 12:12:55;;;;;;;1.08;0.65;;;;;;;;;;5053372;28;20385;-84
2022/06/01 12:15:29;;;;;;;4.30;0.82;;;;;;;;;;5054871;28;20025;-84
2022/06/01 12:18:14;;;;;;;3.92;1.00;;;;;;;;;;5055649;28;20499;-85
2022/06/01 12:20:39;;;;;;;3.70;0.95;;;;;;;;;;5054544;28;20389;-84
2022/06/01 12:28:46;;;;;;;;;;;;;;;;;;5055136;28;20040;-85
2022/06/01 12:31:17;;;;;;;2.53;0.98;;;;;;;;;;5056214;28;19966;-85
2022/06/01 12:34:04;;;;;;;2.78;0.60;;;;;;;;;;5056007;28;20021;-84
2022/06/01 12:36:50;;;;;;;0.75;0.73;;;;;;;;;;5056726;28;20031;-85
2022/06/01 12:39:40;;;;;;;0.75;0.60;;;;;;;;;;5038204;28;20052;-85
2022/06/01 12:42:31;;;;;;;1.27;0.80;;;;;;;;;;5054963;28;20025;-85
2022/06/01 12:44:59;;;;;;;1.85;0.80;;;;;;;;;;5059393;28;20032;-84
2022/06/01 12:47:29;;;;;;;3.33;0.63;;;;;;;;;;5040721;28;20151;-86
2022/06/01 12:49:54;;;;;;;0.60;0.52;;;;;;;;;;5054144;28;20357;-85
2022/06/01 12:52:25;;;;;;;1.95;0.82;;;;;;;;;;5054556;28;20043;-84
2022/06/01 12:54:51;;;;;;;1.05;0.70;;;;;;;;;;5053420;28;20036;-84
2022/06/01 12:57:34;;;;;;;3.85;0.60;;;;;;;;;;5054669;28;20059;-85
2022/06/01 13:00:12;;;;;;;2.72;0.90;;;;;;;;;;5037286;28;20392;-83
2022/06/01 13:02:40;;;;;;;0.88;0.50;;;;;;;;;;5039731;28;20029;-85
2022/06/01 13:05:09;;;;;;;0.50;0.50;;;;;;;;;;5052891;28;20044;-86
2022/06/01 13:07:38;;;;;;;0.95;0.80;;;;;;;;;;5054822;28;20044;-85
2022/06/01 13:10:10;;;;;;;3.20;1.45;;;;;;;;;;5038796;28;20028;-85
2022/06/01 13:12:37;;;;;;;2.67;0.80;;;;;;;;;;5040590;28;20397;-85
2022/06/01 13:15:09;;;;;;;3.45;0.95;;;;;;;;;;5060272;28;20052;-82
2022/06/01 13:17:34;;;;;;;1.38;0.80;;;;;;;;;;5040223;28;20484;-83
2022/06/01 13:20:04;;;;;;;2.42;0.95;;;;;;;;;;5052970;28;20473;-84
2022/06/01 13:22:42;;;;;;;6.20;1.20;;;;;;;;;;5052998;28;20025;-84
2022/06/01 13:25:12;;;;;;;3.55;1.52;;;;;;;;;;5055089;28;20473;-84
2022/06/01 13:27:38;;;;;;;2.72;1.10;;;;;;;;;;5038101;28;20104;-84
2022/06/01 13:30:05;;;;;;;4.38;1.00;;;;;;;;;;5040314;28;20048;-84
2022/06/01 13:32:33;;;;;;;1.33;1.02;;;;;;;;;;5036704;28;20033;-83
2022/06/01 13:35:16;;;;;;;2.58;1.00;;;;;;;;;;5052455;28;20392;-81
2022/06/01 13:37:43;;;;;;;6.32;1.02;;;;;;;;;;5036147;28;20461;-81
2022/06/01 13:40:21;;;;;;;0.98;0.80;;;;;;;;;;5052403;28;20033;-81
2022/06/01 13:42:58;;;;;;;2.70;1.02;;;;;;;;;;5056345;28;20052;-83
2022/06/01 13:45:36;;;;;;;2.95;0.82;;;;;;;;;;5039148;28;20043;-85
2022/06/01 13:48:05;;;;;;;2.67;1.15;;;;;;;;;;5040710;28;20025;-84
2022/06/01 13:50:38;;;;;;;2.05;0.85;;;;;;;;;;5057010;28;20481;-82
2022/06/01 13:53:11;;;;;;;6.25;1.35;;;;;;;;;;5055950;28;20024;-82
2022/06/01 13:55:54;;;;;;;4.07;1.17;;;;;;;;;;5055557;28;20028;-85
2022/06/01 13:58:29;;;;;;;0.83;0.80;;;;;;;;;;5055935;28;20021;-86
2022/06/01 14:01:08;;;;;;;2.15;0.80;;;;;;;;;;5055845;28;20025;-86
2022/06/01 14:03:40;;;;;;;3.22;1.05;;;;;;;;;;5056114;28;20021;-84
2022/06/01 14:06:09;;;;;;;2.47;0.90;;;;;;;;;;5055983;28;20049;-85
2022/06/01 14:08:45;;;;;;;4.75;1.00;;;;;;;;;;5056707;28;20032;-84
2022/06/01 14:11:15;;;;;;;3.85;1.00;;;;;;;;;;5040116;28;20031;-86
2022/06/01 14:13:43;;;;;;;4.30;1.20;;;;;;;;;;5040121;28;20021;-86
2022/06/01 14:16:15;;;;;;;4.03;1.10;;;;;;;;;;5055767;28;20107;-85
2022/06/01 14:18:40;;;;;;;2.40;1.13;;;;;;;;;;5055329;28;20028;-85
2022/06/01 14:21:06;;;;;;;2.38;1.13;;;;;;;;;;5057010;28;20079;-84
2022/06/01 14:23:31;;;;;;;3.97;1.33;;;;;;;;;;5055046;28;20033;-84
2022/06/01 14:28:41;;;;;;;;;;;;;;;;;;5056126;28;20036;-85
2022/06/01 14:31:10;;;;;;;1.55;1.20;;;;;;;;;;5038801;28;19921;-84
2022/06/01 14:33:36;;;;;;;1.70;1.05;;;;;;;;;;5055288;28;20071;-84
2022/06/01 14:36:03;;;;;;;4.57;1.02;;;;;;;;;;5056517;28;20036;-84
2022/06/01 14:38:28;;;;;;;1.08;1.00;;;;;;;;;;5054763;28;20423;-83
2022/06/01 14:40:55;;;;;;;1.33;1.10;;;;;;;;;;5055116;28;20078;-84
2022/06/01 14:43:25;;;;;;;2.05;1.08;;;;;;;;;;5038517;28;20041;-84
2022/06/01 14:45:51;;;;;;;3.35;1.10;;;;;;;;;;5037962;28;20024;-84
2022/06/01 14:48:16;;;;;;;1.60;0.90;;;;;;;;;;5055055;28;20033;-84
2022/06/01 14:50:41;;;;;;;1.02;1.02;;;;;;;;;;5040944;28;20397;-83
2022/06/01 14:53:23;;;;;;;2.80;1.13;;;;;;;;;;5057456;28;20025;-83
2022/06/01 14:55:49;;;;;;;5.05;1.13;;;;;;;;;;5055639;28;20025;-84
2022/06/01 14:58:14;;;;;;;2.47;1.20;;;;;;;;;;5058818;28;20501;-84
2022/06/01 15:00:40;;;;;;;1.30;1.20;;;;;;;;;;5052736;28;20060;-84
2022/06/01 15:03:08;;;;;;;1.70;1.30;;;;;;;;;;5041597;28;20404;-84
2022/06/01 15:05:34;;;;;;;1.23;1.13;;;;;;;;;;5060542;28;20088;-85
2022/06/01 15:07:59;;;;;;;1.60;1.23;;;;;;;;;;5058155;28;20048;-84
2022/06/01 15:10:24;;;;;;;0.93;0.90;;;;;;;;;;5057151;28;20027;-83
2022/06/01 15:12:50;;;;;;;4.32;1.30;;;;;;;;;;5057162;28;20037;-83
2022/06/01 15:15:16;;;;;;;2.55;1.20;;;;;;;;;;5057737;28;20047;-83
2022/06/01 15:17:41;;;;;;;1.20;1.15;;;;;;;;;;5056484;28;20059;-83
2022/06/01 15:20:07;;;;;;;4.22;1.17;;;;;;;;;;5057618;28;20041;-86
2022/06/01 15:22:33;;;;;;;2.25;1.00;;;;;;;;;;5056807;28;20082;-86
2022/06/01 15:24:59;;;;;;;1.25;1.10;;;;;;;;;;5054672;28;20082;-86
2022/06/01 15:27:25;;;;;;;1.30;1.20;;;;;;;;;;5055206;28;20111;-87
2022/06/01 15:40:49;;;;;;;2.30;1.30;;;;;;;;;;5054235;28;20086;-81
2022/06/01 15:43:14;;;;;;;1.30;1.20;;;;;;;;;;5053725;28;20025;-81
2022/06/01 15:45:42;;;;;;;1.65;1.17;;;;;;;;;;5053633;28;20449;-82
2022/06/01 15:48:09;;;;;;;1.58;1.30;;;;;;;;;;5053941;28;20021;-82
2022/06/01 15:50:39;;;;;;;1.80;1.13;;;;;;;;;;5053475;28;20029;-83